sensor_id;sensor_type;location;lat;lon;timestamp;P1;durP1;ratioP1;P2;durP2;ratioP2
23826;SDS011;12094;50.822;4.376;2022-12-08T00:00:30;43.67;;;25.80;;
23826;SDS011;12094;50.822;4.376;2022-12-08T00:02:59;45.10;;;25.42;;
23826;SDS011;12094;50.822;4.376;2022-12-08T00:05:30;51.30;;;26.17;;
23826;SDS011;12094;50.822;4.376;2022-12-08T00:08:15;49.85;;;27.45;;
23826;SDS011;12094;50.822;4.376;2022-12-08T00:11:01;43.47;;;24.88;;
23826;SDS011;12094;50.822;4.376;2022-12-08T00:13:28;53.63;;;26.25;;
23826;SDS011;12094;50.822;4.376;2022-12-08T00:15:59;51.85;;;27.15;;
23826;SDS011;12094;50.822;4.376;2022-12-08T00:18:26;47.17;;;25.20;;
23826;SDS011;12094;50.822;4.376;2022-12-08T00:20:55;46.35;;;25.88;;
23826;SDS011;12094;50.822;4.376;2022-12-08T00:23:26;42.92;;;24.08;;
23826;SDS011;12094;50.822;4.376;2022-12-08T00:25:55;46.75;;;24.90;;
23826;SDS011;12094;50.822;4.376;2022-12-08T00:28:25;46.35;;;24.35;;
23826;SDS011;12094;50.822;4.376;2022-12-08T00:30:53;42.30;;;24.77;;
23826;SDS011;12094;50.822;4.376;2022-12-08T00:33:21;45.05;;;23.45;;
23826;SDS011;12094;50.822;4.376;2022-12-08T00:35:51;45.45;;;24.50;;
23826;SDS011;12094;50.822;4.376;2022-12-08T00:38:19;47.78;;;27.23;;
23826;SDS011;12094;50.822;4.376;2022-12-08T00:43:17;52.53;;;26.45;;
23826;SDS011;12094;50.822;4.376;2022-12-08T00:45:45;51.08;;;26.63;;
23826;SDS011;12094;50.822;4.376;2022-12-08T00:48:12;44.90;;;26.35;;
23826;SDS011;12094;50.822;4.376;2022-12-08T00:50:41;41.75;;;22.35;;
23826;SDS011;12094;50.822;4.376;2022-12-08T00:53:09;46.95;;;24.90;;
23826;SDS011;12094;50.822;4.376;2022-12-08T00:55:37;47.17;;;26.75;;
23826;SDS011;12094;50.822;4.376;2022-12-08T00:58:05;50.40;;;23.98;;
23826;SDS011;12094;50.822;4.376;2022-12-08T01:00:33;44.60;;;24.05;;
23826;SDS011;12094;50.822;4.376;2022-12-08T01:03:01;52.55;;;25.17;;
23826;SDS011;12094;50.822;4.376;2022-12-08T01:05:28;47.42;;;27.45;;
23826;SDS011;12094;50.822;4.376;2022-12-08T01:07:56;56.03;;;26.23;;
23826;SDS011;12094;50.822;4.376;2022-12-08T01:10:23;31.83;;;15.10;;
23826;SDS011;12094;50.822;4.376;2022-12-08T01:12:51;53.88;;;26.48;;
23826;SDS011;12094;50.822;4.376;2022-12-08T01:15:19;53.70;;;28.13;;
23826;SDS011;12094;50.822;4.376;2022-12-08T01:17:47;61.97;;;29.40;;
23826;SDS011;12094;50.822;4.376;2022-12-08T01:20:18;48.70;;;25.90;;
23826;SDS011;12094;50.822;4.376;2022-12-08T01:22:46;61.08;;;28.30;;
23826;SDS011;12094;50.822;4.376;2022-12-08T01:25:13;54.88;;;28.42;;
23826;SDS011;12094;50.822;4.376;2022-12-08T01:27:41;59.15;;;28.65;;
23826;SDS011;12094;50.822;4.376;2022-12-08T01:30:08;56.25;;;29.63;;
23826;SDS011;12094;50.822;4.376;2022-12-08T01:32:36;56.90;;;28.13;;
23826;SDS011;12094;50.822;4.376;2022-12-08T01:35:03;53.15;;;26.33;;
23826;SDS011;12094;50.822;4.376;2022-12-08T01:37:31;58.90;;;27.35;;
23826;SDS011;12094;50.822;4.376;2022-12-08T01:39:59;67.38;;;30.60;;
23826;SDS011;12094;50.822;4.376;2022-12-08T01:42:29;55.05;;;27.67;;
23826;SDS011;12094;50.822;4.376;2022-12-08T01:45:03;56.50;;;28.58;;
23826;SDS011;12094;50.822;4.376;2022-12-08T01:47:37;64.00;;;29.83;;
23826;SDS011;12094;50.822;4.376;2022-12-08T01:50:12;58.63;;;31.77;;
23826;SDS011;12094;50.822;4.376;2022-12-08T02:00:56;67.17;;;30.07;;
23826;SDS011;12094;50.822;4.376;2022-12-08T02:04:06;60.00;;;30.65;;
23826;SDS011;12094;50.822;4.376;2022-12-08T02:06:25;58.78;;;28.95;;
23826;SDS011;12094;50.822;4.376;2022-12-08T02:08:57;55.03;;;28.15;;
23826;SDS011;12094;50.822;4.376;2022-12-08T02:11:27;43.15;;;20.58;;
23826;SDS011;12094;50.822;4.376;2022-12-08T02:13:55;58.00;;;28.95;;
23826;SDS011;12094;50.822;4.376;2022-12-08T02:16:44;60.15;;;29.67;;
23826;SDS011;12094;50.822;4.376;2022-12-08T02:22:27;62.35;;;30.33;;
23826;SDS011;12094;50.822;4.376;2022-12-08T02:25:02;60.17;;;29.60;;
23826;SDS011;12094;50.822;4.376;2022-12-08T02:27:59;55.20;;;27.95;;
23826;SDS011;12094;50.822;4.376;2022-12-08T02:42:16;66.80;;;31.10;;
23826;SDS011;12094;50.822;4.376;2022-12-08T02:44:46;63.45;;;28.23;;
23826;SDS011;12094;50.822;4.376;2022-12-08T02:47:27;60.97;;;30.67;;
23826;SDS011;12094;50.822;4.376;2022-12-08T02:49:58;53.78;;;24.10;;
23826;SDS011;12094;50.822;4.376;2022-12-08T02:55:01;62.88;;;29.45;;
23826;SDS011;12094;50.822;4.376;2022-12-08T03:00:15;60.88;;;30.55;;
23826;SDS011;12094;50.822;4.376;2022-12-08T03:14:16;69.10;;;31.33;;
23826;SDS011;12094;50.822;4.376;2022-12-08T03:16:46;67.90;;;31.42;;
23826;SDS011;12094;50.822;4.376;2022-12-08T03:19:20;63.38;;;30.40;;
23826;SDS011;12094;50.822;4.376;2022-12-08T03:22:05;62.35;;;31.00;;
23826;SDS011;12094;50.822;4.376;2022-12-08T03:24:37;61.30;;;31.10;;
23826;SDS011;12094;50.822;4.376;2022-12-08T03:29:36;56.70;;;28.20;;
23826;SDS011;12094;50.822;4.376;2022-12-08T03:32:39;58.38;;;28.25;;
23826;SDS011;12094;50.822;4.376;2022-12-08T03:35:17;66.15;;;28.65;;
23826;SDS011;12094;50.822;4.376;2022-12-08T03:37:49;56.95;;;26.35;;
23826;SDS011;12094;50.822;4.376;2022-12-08T03:40:19;57.00;;;27.25;;
23826;SDS011;12094;50.822;4.376;2022-12-08T03:42:46;61.97;;;28.02;;
23826;SDS011;12094;50.822;4.376;2022-12-08T03:45:15;61.05;;;29.90;;
23826;SDS011;12094;50.822;4.376;2022-12-08T03:47:43;56.00;;;26.50;;
23826;SDS011;12094;50.822;4.376;2022-12-08T03:50:11;57.63;;;28.95;;
23826;SDS011;12094;50.822;4.376;2022-12-08T03:52:42;56.28;;;27.85;;
23826;SDS011;12094;50.822;4.376;2022-12-08T03:55:13;57.15;;;28.05;;
23826;SDS011;12094;50.822;4.376;2022-12-08T03:57:40;58.30;;;27.02;;
23826;SDS011;12094;50.822;4.376;2022-12-08T04:00:08;57.42;;;29.27;;
23826;SDS011;12094;50.822;4.376;2022-12-08T04:02:42;44.15;;;20.13;;
23826;SDS011;12094;50.822;4.376;2022-12-08T04:05:10;56.80;;;27.45;;
23826;SDS011;12094;50.822;4.376;2022-12-08T04:07:39;50.22;;;24.58;;
23826;SDS011;12094;50.822;4.376;2022-12-08T04:10:06;46.83;;;24.00;;
23826;SDS011;12094;50.822;4.376;2022-12-08T04:12:34;55.67;;;26.17;;
23826;SDS011;12094;50.822;4.376;2022-12-08T04:15:04;55.30;;;26.65;;
23826;SDS011;12094;50.822;4.376;2022-12-08T04:17:32;51.55;;;26.13;;
23826;SDS011;12094;50.822;4.376;2022-12-08T04:20:00;49.38;;;27.52;;
23826;SDS011;12094;50.822;4.376;2022-12-08T04:22:27;63.90;;;30.90;;
23826;SDS011;12094;50.822;4.376;2022-12-08T04:24:55;51.65;;;26.48;;
23826;SDS011;12094;50.822;4.376;2022-12-08T04:27:24;60.38;;;28.55;;
23826;SDS011;12094;50.822;4.376;2022-12-08T04:29:51;54.50;;;27.38;;
23826;SDS011;12094;50.822;4.376;2022-12-08T04:32:24;53.17;;;26.38;;
23826;SDS011;12094;50.822;4.376;2022-12-08T04:34:57;52.05;;;23.52;;
23826;SDS011;12094;50.822;4.376;2022-12-08T04:37:26;49.90;;;25.70;;
23826;SDS011;12094;50.822;4.376;2022-12-08T04:39:57;50.10;;;25.33;;
23826;SDS011;12094;50.822;4.376;2022-12-08T04:42:24;45.90;;;24.05;;
23826;SDS011;12094;50.822;4.376;2022-12-08T04:47:23;49.58;;;24.63;;
23826;SDS011;12094;50.822;4.376;2022-12-08T04:49:51;55.25;;;26.23;;
23826;SDS011;12094;50.822;4.376;2022-12-08T04:52:18;55.97;;;26.77;;
23826;SDS011;12094;50.822;4.376;2022-12-08T04:54:46;59.03;;;28.05;;
23826;SDS011;12094;50.822;4.376;2022-12-08T04:57:14;54.58;;;25.00;;
23826;SDS011;12094;50.822;4.376;2022-12-08T04:59:42;51.55;;;25.83;;
23826;SDS011;12094;50.822;4.376;2022-12-08T05:02:09;46.50;;;25.35;;
23826;SDS011;12094;50.822;4.376;2022-12-08T05:04:37;60.08;;;26.77;;
23826;SDS011;12094;50.822;4.376;2022-12-08T05:07:05;59.20;;;26.40;;
23826;SDS011;12094;50.822;4.376;2022-12-08T05:09:33;59.42;;;26.08;;
23826;SDS011;12094;50.822;4.376;2022-12-08T05:12:02;48.75;;;24.23;;
23826;SDS011;12094;50.822;4.376;2022-12-08T05:14:31;59.03;;;27.17;;
23826;SDS011;12094;50.822;4.376;2022-12-08T05:17:01;53.05;;;23.85;;
23826;SDS011;12094;50.822;4.376;2022-12-08T05:19:35;52.95;;;25.15;;
23826;SDS011;12094;50.822;4.376;2022-12-08T05:22:04;60.78;;;26.70;;
23826;SDS011;12094;50.822;4.376;2022-12-08T05:24:32;54.08;;;24.05;;
23826;SDS011;12094;50.822;4.376;2022-12-08T05:26:59;49.47;;;25.88;;
23826;SDS011;12094;50.822;4.376;2022-12-08T05:29:30;51.20;;;26.00;;
23826;SDS011;12094;50.822;4.376;2022-12-08T05:31:59;55.50;;;25.13;;
23826;SDS011;12094;50.822;4.376;2022-12-08T05:34:29;53.63;;;25.92;;
23826;SDS011;12094;50.822;4.376;2022-12-08T05:36:57;38.70;;;18.63;;
23826;SDS011;12094;50.822;4.376;2022-12-08T05:39:27;50.85;;;24.17;;
23826;SDS011;12094;50.822;4.376;2022-12-08T05:41:55;46.17;;;23.02;;
23826;SDS011;12094;50.822;4.376;2022-12-08T05:44:24;42.80;;;20.92;;
23826;SDS011;12094;50.822;4.376;2022-12-08T05:46:52;56.00;;;24.77;;
23826;SDS011;12094;50.822;4.376;2022-12-08T05:49:19;49.28;;;23.70;;
23826;SDS011;12094;50.822;4.376;2022-12-08T05:51:48;53.33;;;23.40;;
23826;SDS011;12094;50.822;4.376;2022-12-08T05:54:17;40.72;;;20.27;;
23826;SDS011;12094;50.822;4.376;2022-12-08T05:56:45;43.72;;;22.00;;
23826;SDS011;12094;50.822;4.376;2022-12-08T05:59:12;48.70;;;22.65;;
23826;SDS011;12094;50.822;4.376;2022-12-08T06:01:39;49.20;;;21.98;;
23826;SDS011;12094;50.822;4.376;2022-12-08T06:04:09;45.13;;;23.20;;
23826;SDS011;12094;50.822;4.376;2022-12-08T06:06:38;44.50;;;20.33;;
23826;SDS011;12094;50.822;4.376;2022-12-08T06:09:08;44.13;;;21.38;;
23826;SDS011;12094;50.822;4.376;2022-12-08T06:11:39;42.50;;;21.25;;
23826;SDS011;12094;50.822;4.376;2022-12-08T06:14:09;43.47;;;21.70;;
23826;SDS011;12094;50.822;4.376;2022-12-08T06:16:38;39.75;;;18.75;;
23826;SDS011;12094;50.822;4.376;2022-12-08T06:19:05;45.08;;;20.88;;
23826;SDS011;12094;50.822;4.376;2022-12-08T06:21:35;42.03;;;20.42;;
23826;SDS011;12094;50.822;4.376;2022-12-08T06:24:02;40.28;;;19.73;;
23826;SDS011;12094;50.822;4.376;2022-12-08T06:26:31;42.75;;;19.45;;
23826;SDS011;12094;50.822;4.376;2022-12-08T06:28:59;39.35;;;19.73;;
23826;SDS011;12094;50.822;4.376;2022-12-08T06:31:27;34.45;;;17.30;;
23826;SDS011;12094;50.822;4.376;2022-12-08T06:33:54;41.63;;;17.95;;
23826;SDS011;12094;50.822;4.376;2022-12-08T06:36:22;37.13;;;18.88;;
23826;SDS011;12094;50.822;4.376;2022-12-08T06:38:53;42.83;;;17.27;;
23826;SDS011;12094;50.822;4.376;2022-12-08T06:41:22;36.33;;;17.60;;
23826;SDS011;12094;50.822;4.376;2022-12-08T06:47:13;43.78;;;18.50;;
23826;SDS011;12094;50.822;4.376;2022-12-08T06:49:43;33.70;;;17.80;;
23826;SDS011;12094;50.822;4.376;2022-12-08T06:52:10;42.40;;;18.40;;
23826;SDS011;12094;50.822;4.376;2022-12-08T06:54:37;27.35;;;15.27;;
23826;SDS011;12094;50.822;4.376;2022-12-08T06:57:04;37.78;;;17.00;;
23826;SDS011;12094;50.822;4.376;2022-12-08T06:59:30;46.53;;;18.90;;
23826;SDS011;12094;50.822;4.376;2022-12-08T07:01:59;39.97;;;17.23;;
23826;SDS011;12094;50.822;4.376;2022-12-08T07:07:25;42.03;;;17.30;;
23826;SDS011;12094;50.822;4.376;2022-12-08T07:12:22;41.35;;;18.30;;
23826;SDS011;12094;50.822;4.376;2022-12-08T07:14:49;40.65;;;18.33;;
23826;SDS011;12094;50.822;4.376;2022-12-08T07:17:16;39.15;;;16.88;;
23826;SDS011;12094;50.822;4.376;2022-12-08T07:19:43;33.92;;;16.77;;
23826;SDS011;12094;50.822;4.376;2022-12-08T07:22:10;35.78;;;17.23;;
23826;SDS011;12094;50.822;4.376;2022-12-08T07:24:40;40.75;;;16.83;;
23826;SDS011;12094;50.822;4.376;2022-12-08T07:27:08;38.05;;;17.42;;
23826;SDS011;12094;50.822;4.376;2022-12-08T07:29:35;44.75;;;18.35;;
23826;SDS011;12094;50.822;4.376;2022-12-08T07:32:06;40.28;;;16.77;;
23826;SDS011;12094;50.822;4.376;2022-12-08T07:34:33;41.83;;;19.27;;
23826;SDS011;12094;50.822;4.376;2022-12-08T07:37:01;36.97;;;16.02;;
23826;SDS011;12094;50.822;4.376;2022-12-08T07:39:28;36.15;;;19.40;;
23826;SDS011;12094;50.822;4.376;2022-12-08T07:41:55;39.10;;;18.52;;
23826;SDS011;12094;50.822;4.376;2022-12-08T07:44:31;41.35;;;18.77;;
23826;SDS011;12094;50.822;4.376;2022-12-08T07:46:59;43.75;;;17.77;;
23826;SDS011;12094;50.822;4.376;2022-12-08T07:49:27;35.22;;;18.33;;
23826;SDS011;12094;50.822;4.376;2022-12-08T07:51:56;39.25;;;20.05;;
23826;SDS011;12094;50.822;4.376;2022-12-08T07:54:22;44.47;;;19.33;;
23826;SDS011;12094;50.822;4.376;2022-12-08T07:56:50;41.28;;;19.38;;
23826;SDS011;12094;50.822;4.376;2022-12-08T07:59:17;44.35;;;20.75;;
23826;SDS011;12094;50.822;4.376;2022-12-08T08:01:44;37.63;;;18.63;;
23826;SDS011;12094;50.822;4.376;2022-12-08T08:04:33;45.13;;;18.67;;
23826;SDS011;12094;50.822;4.376;2022-12-08T08:07:00;42.47;;;18.73;;
23826;SDS011;12094;50.822;4.376;2022-12-08T08:09:28;35.13;;;17.20;;
23826;SDS011;12094;50.822;4.376;2022-12-08T08:11:56;40.53;;;18.65;;
23826;SDS011;12094;50.822;4.376;2022-12-08T08:14:44;40.20;;;16.92;;
23826;SDS011;12094;50.822;4.376;2022-12-08T08:17:11;43.97;;;18.15;;
23826;SDS011;12094;50.822;4.376;2022-12-08T08:19:38;36.30;;;17.90;;
23826;SDS011;12094;50.822;4.376;2022-12-08T08:22:05;35.30;;;15.82;;
23826;SDS011;12094;50.822;4.376;2022-12-08T08:24:32;43.08;;;17.25;;
23826;SDS011;12094;50.822;4.376;2022-12-08T08:26:59;40.83;;;17.13;;
23826;SDS011;12094;50.822;4.376;2022-12-08T08:29:27;35.35;;;17.50;;
23826;SDS011;12094;50.822;4.376;2022-12-08T08:31:54;39.50;;;15.45;;
23826;SDS011;12094;50.822;4.376;2022-12-08T08:34:22;41.55;;;17.15;;
23826;SDS011;12094;50.822;4.376;2022-12-08T08:36:49;40.28;;;16.83;;
23826;SDS011;12094;50.822;4.376;2022-12-08T08:39:16;46.17;;;17.90;;
23826;SDS011;12094;50.822;4.376;2022-12-08T08:41:43;40.47;;;17.95;;
23826;SDS011;12094;50.822;4.376;2022-12-08T08:44:12;44.72;;;18.98;;
23826;SDS011;12094;50.822;4.376;2022-12-08T08:46:41;40.83;;;18.10;;
23826;SDS011;12094;50.822;4.376;2022-12-08T08:49:08;43.90;;;18.52;;
23826;SDS011;12094;50.822;4.376;2022-12-08T08:51:36;52.50;;;20.52;;
23826;SDS011;12094;50.822;4.376;2022-12-08T08:54:02;50.40;;;20.52;;
23826;SDS011;12094;50.822;4.376;2022-12-08T08:56:29;40.22;;;17.98;;
23826;SDS011;12094;50.822;4.376;2022-12-08T08:58:56;38.65;;;18.58;;
23826;SDS011;12094;50.822;4.376;2022-12-08T09:01:25;41.25;;;18.08;;
23826;SDS011;12094;50.822;4.376;2022-12-08T09:03:56;45.40;;;18.63;;
23826;SDS011;12094;50.822;4.376;2022-12-08T09:06:25;38.50;;;18.73;;
23826;SDS011;12094;50.822;4.376;2022-12-08T09:08:54;47.25;;;20.00;;
23826;SDS011;12094;50.822;4.376;2022-12-08T09:11:24;46.78;;;20.10;;
23826;SDS011;12094;50.822;4.376;2022-12-08T09:13:54;54.80;;;20.30;;
23826;SDS011;12094;50.822;4.376;2022-12-08T09:16:21;48.63;;;20.05;;
23826;SDS011;12094;50.822;4.376;2022-12-08T09:18:50;40.45;;;19.95;;
23826;SDS011;12094;50.822;4.376;2022-12-08T09:21:19;42.95;;;20.25;;
23826;SDS011;12094;50.822;4.376;2022-12-08T09:23:52;40.15;;;19.52;;
23826;SDS011;12094;50.822;4.376;2022-12-08T09:26:24;47.25;;;18.65;;
23826;SDS011;12094;50.822;4.376;2022-12-08T09:28:52;40.55;;;17.75;;
23826;SDS011;12094;50.822;4.376;2022-12-08T09:31:21;40.05;;;18.52;;
23826;SDS011;12094;50.822;4.376;2022-12-08T09:33:49;40.58;;;18.20;;
23826;SDS011;12094;50.822;4.376;2022-12-08T09:36:19;39.05;;;17.95;;
23826;SDS011;12094;50.822;4.376;2022-12-08T09:38:47;39.00;;;16.08;;
23826;SDS011;12094;50.822;4.376;2022-12-08T09:41:16;33.95;;;13.10;;
23826;SDS011;12094;50.822;4.376;2022-12-08T09:44:03;36.65;;;15.80;;
23826;SDS011;12094;50.822;4.376;2022-12-08T09:46:41;33.70;;;14.02;;
23826;SDS011;12094;50.822;4.376;2022-12-08T09:49:15;39.45;;;16.73;;
23826;SDS011;12094;50.822;4.376;2022-12-08T09:51:49;39.60;;;15.68;;
23826;SDS011;12094;50.822;4.376;2022-12-08T09:56:50;38.70;;;16.02;;
23826;SDS011;12094;50.822;4.376;2022-12-08T09:59:25;42.97;;;17.23;;
23826;SDS011;12094;50.822;4.376;2022-12-08T10:01:56;42.58;;;17.63;;
23826;SDS011;12094;50.822;4.376;2022-12-08T10:09:51;39.42;;;15.98;;
23826;SDS011;12094;50.822;4.376;2022-12-08T10:18:01;37.17;;;16.42;;
23826;SDS011;12094;50.822;4.376;2022-12-08T10:20:36;36.53;;;15.05;;
23826;SDS011;12094;50.822;4.376;2022-12-08T10:26:00;33.08;;;13.73;;
23826;SDS011;12094;50.822;4.376;2022-12-08T10:28:39;35.28;;;15.77;;
23826;SDS011;12094;50.822;4.376;2022-12-08T10:31:24;35.35;;;15.00;;
23826;SDS011;12094;50.822;4.376;2022-12-08T10:34:13;34.53;;;14.30;;
23826;SDS011;12094;50.822;4.376;2022-12-08T10:36:52;28.70;;;14.77;;
23826;SDS011;12094;50.822;4.376;2022-12-08T10:47:26;30.27;;;14.02;;
23826;SDS011;12094;50.822;4.376;2022-12-08T10:50:11;32.45;;;13.73;;
23826;SDS011;12094;50.822;4.376;2022-12-08T11:03:36;31.02;;;14.35;;
23826;SDS011;12094;50.822;4.376;2022-12-08T11:08:47;31.63;;;14.25;;
23826;SDS011;12094;50.822;4.376;2022-12-08T11:11:18;35.90;;;14.68;;
23826;SDS011;12094;50.822;4.376;2022-12-08T11:13:54;32.45;;;13.85;;
23826;SDS011;12094;50.822;4.376;2022-12-08T11:16:21;30.25;;;13.85;;
23826;SDS011;12094;50.822;4.376;2022-12-08T11:18:54;31.33;;;13.50;;
23826;SDS011;12094;50.822;4.376;2022-12-08T11:21:29;29.77;;;13.60;;
23826;SDS011;12094;50.822;4.376;2022-12-08T11:27:03;28.60;;;12.55;;
23826;SDS011;12094;50.822;4.376;2022-12-08T11:29:32;32.22;;;11.73;;
23826;SDS011;12094;50.822;4.376;2022-12-08T11:40:06;21.52;;;11.10;;
23826;SDS011;12094;50.822;4.376;2022-12-08T11:43:00;30.83;;;11.57;;
23826;SDS011;12094;50.822;4.376;2022-12-08T11:45:42;25.08;;;10.55;;
23826;SDS011;12094;50.822;4.376;2022-12-08T11:48:12;22.70;;;11.25;;
23826;SDS011;12094;50.822;4.376;2022-12-08T11:50:52;22.73;;;11.07;;
23826;SDS011;12094;50.822;4.376;2022-12-08T11:53:28;25.80;;;11.52;;
23826;SDS011;12094;50.822;4.376;2022-12-08T11:59:35;24.48;;;12.05;;
23826;SDS011;12094;50.822;4.376;2022-12-08T12:02:05;19.60;;;10.93;;
23826;SDS011;12094;50.822;4.376;2022-12-08T12:10:47;24.77;;;10.52;;
23826;SDS011;12094;50.822;4.376;2022-12-08T12:13:59;26.42;;;11.15;;
23826;SDS011;12094;50.822;4.376;2022-12-08T12:19:29;21.75;;;10.48;;
23826;SDS011;12094;50.822;4.376;2022-12-08T12:22:21;26.25;;;10.88;;
23826;SDS011;12094;50.822;4.376;2022-12-08T12:24:48;26.90;;;11.75;;
23826;SDS011;12094;50.822;4.376;2022-12-08T12:27:26;23.33;;;12.07;;
23826;SDS011;12094;50.822;4.376;2022-12-08T12:29:59;28.77;;;12.30;;
23826;SDS011;12094;50.822;4.376;2022-12-08T12:35:32;30.35;;;12.68;;
23826;SDS011;12094;50.822;4.376;2022-12-08T12:38:03;32.10;;;12.63;;
23826;SDS011;12094;50.822;4.376;2022-12-08T12:41:03;25.40;;;10.82;;
23826;SDS011;12094;50.822;4.376;2022-12-08T12:43:34;29.40;;;11.27;;
23826;SDS011;12094;50.822;4.376;2022-12-08T12:48:51;26.15;;;10.98;;
23826;SDS011;12094;50.822;4.376;2022-12-08T12:52:01;23.55;;;10.73;;
23826;SDS011;12094;50.822;4.376;2022-12-08T12:54:23;18.92;;;10.60;;
23826;SDS011;12094;50.822;4.376;2022-12-08T12:56:53;21.65;;;10.68;;
23826;SDS011;12094;50.822;4.376;2022-12-08T13:07:56;24.20;;;11.27;;
23826;SDS011;12094;50.822;4.376;2022-12-08T13:10:29;26.10;;;11.95;;
23826;SDS011;12094;50.822;4.376;2022-12-08T13:13:04;27.73;;;11.70;;
23826;SDS011;12094;50.822;4.376;2022-12-08T13:15:48;29.13;;;11.77;;
23826;SDS011;12094;50.822;4.376;2022-12-08T13:18:28;22.15;;;11.05;;
23826;SDS011;12094;50.822;4.376;2022-12-08T13:21:12;27.52;;;12.18;;
23826;SDS011;12094;50.822;4.376;2022-12-08T13:23:46;30.50;;;12.43;;
23826;SDS011;12094;50.822;4.376;2022-12-08T13:26:42;25.40;;;10.82;;
23826;SDS011;12094;50.822;4.376;2022-12-08T13:31:52;18.77;;;10.60;;
23826;SDS011;12094;50.822;4.376;2022-12-08T13:34:26;28.55;;;11.45;;
23826;SDS011;12094;50.822;4.376;2022-12-08T13:37:48;23.73;;;10.88;;
23826;SDS011;12094;50.822;4.376;2022-12-08T13:39:54;26.05;;;12.32;;
23826;SDS011;12094;50.822;4.376;2022-12-08T13:45:23;23.58;;;12.25;;
23826;SDS011;12094;50.822;4.376;2022-12-08T13:51:34;27.13;;;10.95;;
23826;SDS011;12094;50.822;4.376;2022-12-08T13:54:33;21.67;;;10.98;;
23826;SDS011;12094;50.822;4.376;2022-12-08T13:57:33;20.90;;;10.32;;
23826;SDS011;12094;50.822;4.376;2022-12-08T14:00:06;23.98;;;10.30;;
23826;SDS011;12094;50.822;4.376;2022-12-08T14:02:41;23.42;;;9.88;;
23826;SDS011;12094;50.822;4.376;2022-12-08T14:07:46;23.93;;;11.07;;
23826;SDS011;12094;50.822;4.376;2022-12-08T14:10:17;22.38;;;9.90;;
23826;SDS011;12094;50.822;4.376;2022-12-08T14:12:51;23.02;;;9.73;;
23826;SDS011;12094;50.822;4.376;2022-12-08T14:15:30;20.05;;;8.80;;
23826;SDS011;12094;50.822;4.376;2022-12-08T14:18:04;19.85;;;9.65;;
23826;SDS011;12094;50.822;4.376;2022-12-08T14:20:33;17.42;;;9.20;;
23826;SDS011;12094;50.822;4.376;2022-12-08T14:25:52;19.60;;;9.15;;
23826;SDS011;12094;50.822;4.376;2022-12-08T14:31:15;18.00;;;9.63;;
23826;SDS011;12094;50.822;4.376;2022-12-08T14:33:46;20.92;;;10.10;;
23826;SDS011;12094;50.822;4.376;2022-12-08T14:36:22;17.35;;;9.85;;
23826;SDS011;12094;50.822;4.376;2022-12-08T14:38:50;20.40;;;9.70;;
23826;SDS011;12094;50.822;4.376;2022-12-08T14:41:24;20.50;;;9.73;;
23826;SDS011;12094;50.822;4.376;2022-12-08T14:43:57;18.20;;;9.63;;
23826;SDS011;12094;50.822;4.376;2022-12-08T14:46:28;18.50;;;9.88;;
23826;SDS011;12094;50.822;4.376;2022-12-08T14:49:01;21.58;;;9.43;;
23826;SDS011;12094;50.822;4.376;2022-12-08T14:51:30;19.65;;;10.35;;
23826;SDS011;12094;50.822;4.376;2022-12-08T14:54:05;18.88;;;9.98;;
23826;SDS011;12094;50.822;4.376;2022-12-08T14:56:50;20.02;;;10.15;;
23826;SDS011;12094;50.822;4.376;2022-12-08T15:01:53;18.77;;;10.27;;
23826;SDS011;12094;50.822;4.376;2022-12-08T15:04:37;19.38;;;9.77;;
23826;SDS011;12094;50.822;4.376;2022-12-08T15:09:41;18.08;;;9.68;;
23826;SDS011;12094;50.822;4.376;2022-12-08T15:14:42;20.65;;;10.80;;
23826;SDS011;12094;50.822;4.376;2022-12-08T15:20:23;17.92;;;10.30;;
23826;SDS011;12094;50.822;4.376;2022-12-08T15:22:56;26.40;;;11.07;;
23826;SDS011;12094;50.822;4.376;2022-12-08T15:25:24;20.77;;;10.77;;
23826;SDS011;12094;50.822;4.376;2022-12-08T15:27:51;21.80;;;12.20;;
23826;SDS011;12094;50.822;4.376;2022-12-08T15:30:24;29.27;;;11.00;;
23826;SDS011;12094;50.822;4.376;2022-12-08T15:32:55;20.92;;;10.98;;
23826;SDS011;12094;50.822;4.376;2022-12-08T15:35:22;21.67;;;11.10;;
23826;SDS011;12094;50.822;4.376;2022-12-08T15:37:48;21.48;;;10.60;;
23826;SDS011;12094;50.822;4.376;2022-12-08T15:40:16;20.08;;;10.77;;
23826;SDS011;12094;50.822;4.376;2022-12-08T15:42:45;19.02;;;10.57;;
23826;SDS011;12094;50.822;4.376;2022-12-08T15:45:13;24.33;;;10.65;;
23826;SDS011;12094;50.822;4.376;2022-12-08T15:47:41;23.25;;;10.93;;
23826;SDS011;12094;50.822;4.376;2022-12-08T15:50:16;26.52;;;11.98;;
23826;SDS011;12094;50.822;4.376;2022-12-08T15:52:46;18.25;;;10.40;;
23826;SDS011;12094;50.822;4.376;2022-12-08T15:55:15;22.38;;;11.35;;
23826;SDS011;12094;50.822;4.376;2022-12-08T15:57:44;21.65;;;10.52;;
23826;SDS011;12094;50.822;4.376;2022-12-08T16:00:34;21.30;;;10.57;;
23826;SDS011;12094;50.822;4.376;2022-12-08T16:03:19;17.38;;;11.00;;
23826;SDS011;12094;50.822;4.376;2022-12-08T16:06:17;14.60;;;7.60;;
23826;SDS011;12094;50.822;4.376;2022-12-08T16:09:08;20.40;;;11.27;;
23826;SDS011;12094;50.822;4.376;2022-12-08T16:11:51;19.98;;;10.73;;
23826;SDS011;12094;50.822;4.376;2022-12-08T16:14:37;15.95;;;10.70;;
23826;SDS011;12094;50.822;4.376;2022-12-08T16:17:44;20.55;;;10.27;;
23826;SDS011;12094;50.822;4.376;2022-12-08T16:20:14;16.17;;;8.90;;
23826;SDS011;12094;50.822;4.376;2022-12-08T16:22:43;14.73;;;8.10;;
23826;SDS011;12094;50.822;4.376;2022-12-08T16:25:30;20.63;;;8.68;;
23826;SDS011;12094;50.822;4.376;2022-12-08T16:28:18;12.82;;;6.68;;
23826;SDS011;12094;50.822;4.376;2022-12-08T16:31:05;10.13;;;6.20;;
23826;SDS011;12094;50.822;4.376;2022-12-08T16:33:39;9.55;;;6.13;;
23826;SDS011;12094;50.822;4.376;2022-12-08T16:36:06;13.88;;;6.75;;
23826;SDS011;12094;50.822;4.376;2022-12-08T16:38:34;11.45;;;7.53;;
23826;SDS011;12094;50.822;4.376;2022-12-08T16:41:01;9.77;;;7.68;;
23826;SDS011;12094;50.822;4.376;2022-12-08T16:43:47;11.27;;;7.30;;
23826;SDS011;12094;50.822;4.376;2022-12-08T16:46:18;14.80;;;7.40;;
23826;SDS011;12094;50.822;4.376;2022-12-08T16:48:53;11.00;;;7.30;;
23826;SDS011;12094;50.822;4.376;2022-12-08T16:51:22;12.02;;;8.13;;
23826;SDS011;12094;50.822;4.376;2022-12-08T16:53:54;14.02;;;9.30;;
23826;SDS011;12094;50.822;4.376;2022-12-08T16:56:23;12.32;;;8.43;;
23826;SDS011;12094;50.822;4.376;2022-12-08T16:59:00;17.05;;;8.70;;
23826;SDS011;12094;50.822;4.376;2022-12-08T17:01:33;12.90;;;8.98;;
23826;SDS011;12094;50.822;4.376;2022-12-08T17:04:02;16.77;;;9.57;;
23826;SDS011;12094;50.822;4.376;2022-12-08T17:06:50;16.33;;;9.15;;
23826;SDS011;12094;50.822;4.376;2022-12-08T17:09:20;15.93;;;9.40;;
23826;SDS011;12094;50.822;4.376;2022-12-08T17:11:48;14.05;;;9.40;;
23826;SDS011;12094;50.822;4.376;2022-12-08T17:14:15;20.13;;;9.70;;
23826;SDS011;12094;50.822;4.376;2022-12-08T17:16:44;16.67;;;9.93;;
23826;SDS011;12094;50.822;4.376;2022-12-08T17:19:12;16.80;;;11.25;;
23826;SDS011;12094;50.822;4.376;2022-12-08T17:21:40;16.13;;;10.55;;
23826;SDS011;12094;50.822;4.376;2022-12-08T17:24:11;19.75;;;12.15;;
23826;SDS011;12094;50.822;4.376;2022-12-08T17:26:46;17.80;;;11.80;;
23826;SDS011;12094;50.822;4.376;2022-12-08T17:29:14;20.40;;;11.98;;
23826;SDS011;12094;50.822;4.376;2022-12-08T17:31:43;21.10;;;13.23;;